KRCX

Details ICAO KRCX
Name RUSK COUNTY
Region United States
Timezone America/Chicago (UTC-5.0)
Plans Departing 0
Arriving 3
Stats Elevation 1,238 ft / 377 m (AMSL)
Location 45.496750° -91.000411°
Runways 2
Magnetic Variation 1.769° W
Sunrise 2018-05-23 10:26:40 UTC / 2018-05-23 05:26:40 Local
Sunset 2018-05-24 01:37:44 UTC / 2018-05-23 20:37:44 Local
Advertisement - Login to hide

Runways

ID Width Length Bearing (true) Bearing (mag) Surface Threshold Offset Overrun Length
01 75 ft / 23 m 3,202 ft / 976 m 6.48° 8.25° Asphalt 0 ft / 0 m 0 ft / 0 m
14 75 ft / 23 m 3,998 ft / 1,219 m 140.59° 142.36° Asphalt 0 ft / 0 m 0 ft / 0 m
19 75 ft / 23 m 3,202 ft / 976 m 186.49° 188.26° Asphalt 0 ft / 0 m 0 ft / 0 m
32 75 ft / 23 m 3,998 ft / 1,219 m 320.60° 322.37° Asphalt 0 ft / 0 m 0 ft / 0 m

Map

Weather


0- 5 10 15 20 25 30 35+ Temperature / ° C

Clouds and Precipitation
Forecast for 2018-05-23 12:00 UTC. Updated 2 hours ago

Ground ~20,000 ft ~40,000 ft Winds

METAR

KRCX 231055Z AUTO 00000KT M1/4SM FG OVC001 11/10 A3016 RMK AO2 T01070103

TAF

Not found

Frequencies

Recorded 118.12 MHz AWOS 3
Warning: Do not use this data for real-world aviation or navigation. No guarantee of current accuracy is given.